Time;durP1;ratioP1;P1;durP2;ratioP2;P2;SDS_P1;SDS_P2;PMS_P1;PMS_P2;Temp;Humidity;BMP_temperature;BMP_pressure;BME280_temperature;BME280_humidity;BME280_pressure;Samples;Min_cycle;Max_cycle;Signal;HPM_P1;HPM_P2
2022/04/09 00:00:23;;;;;;;4.13;2.20;;;;;;;17.94;37.12;98606.13;6273204;22;19999;-87
2022/04/09 00:02:49;;;;;;;3.70;1.90;;;;;;;17.48;36.97;98559.31;6272882;22;20016;-87
2022/04/09 00:05:15;;;;;;;4.85;2.45;;;;;;;17.18;36.96;98503.66;6273165;22;20000;-88
2022/04/09 00:07:41;;;;;;;2.42;2.03;;;;;;;17.73;37.29;98588.22;6274740;22;20026;-89
2022/04/09 00:10:08;;;;;;;2.75;1.92;;;;;;;17.85;37.25;98602.28;6274656;22;20007;-87
2022/04/09 00:12:34;;;;;;;2.50;1.75;;;;;;;17.54;37.27;98550.31;6274621;22;20445;-87
2022/04/09 00:15:00;;;;;;;3.95;2.17;;;;;;;17.08;37.35;98469.63;6273437;22;19999;-88
2022/04/09 00:17:25;;;;;;;4.72;1.98;;;;;;;17.63;37.43;98569.38;6273563;22;20000;-87
2022/04/09 00:19:52;;;;;;;2.40;2.20;;;;;;;18.01;37.12;98609.44;6273526;22;19999;-87
2022/04/09 00:22:18;;;;;;;3.47;2.13;;;;;;;17.58;37.19;98531.94;6275366;22;19999;-87
2022/04/09 00:24:43;;;;;;;4.18;1.80;;;;;;;17.89;37.31;98575.88;6273904;22;20002;-88
2022/04/09 00:27:08;;;;;;;3.67;2.05;;;;;;;16.56;37.20;98378.50;6276640;22;20082;-87
2022/04/09 00:29:34;;;;;;;3.08;2.08;;;;;;;18.04;37.03;98640.97;6275826;22;20069;-88
2022/04/09 00:31:59;;;;;;;3.53;2.05;;;;;;;17.60;37.30;98564.53;6274902;22;19996;-87
2022/04/09 00:34:25;;;;;;;3.47;2.00;;;;;;;17.22;37.49;98482.63;6274983;22;20004;-87
2022/04/09 00:36:50;;;;;;;4.20;2.40;;;;;;;17.76;37.45;98596.53;6276868;22;20045;-87
2022/04/09 00:39:16;;;;;;;3.72;2.05;;;;;;;17.98;37.55;98617.94;6275156;22;20102;-88
2022/04/09 00:41:47;;;;;;;4.15;1.80;;;;;;;17.50;37.58;98535.84;6276577;22;19999;-87
2022/04/09 00:44:20;;;;;;;5.07;2.25;;;;;;;16.94;37.64;98457.69;6276668;22;20330;-87
2022/04/09 00:46:45;;;;;;;3.50;2.15;;;;;;;17.02;37.69;98505.28;6275171;22;20006;-87
2022/04/09 00:49:13;;;;;;;2.95;1.77;;;;;;;17.78;37.90;98605.09;6275200;22;20000;-88
2022/04/09 00:51:43;;;;;;;5.07;2.30;;;;;;;17.00;38.24;98502.06;6277010;22;20441;-88
2022/04/09 00:54:11;;;;;;;5.13;2.33;;;;;;;17.45;38.09;98573.94;6276457;22;20057;-87
2022/04/09 00:56:38;;;;;;;4.20;2.00;;;;;;;17.08;38.45;98522.16;6276877;22;20018;-87
2022/04/09 00:59:06;;;;;;;4.65;2.28;;;;;;;17.31;38.38;98570.00;6277241;22;20070;-88
2022/04/09 01:01:37;;;;;;;2.90;1.90;;;;;;;16.89;38.47;98512.81;6275351;22;20007;-87
2022/04/09 01:04:10;;;;;;;2.73;1.60;;;;;;;17.47;38.32;98597.72;6276934;22;20000;-88
2022/04/09 01:06:36;;;;;;;3.80;1.98;;;;;;;17.49;38.36;98603.63;6275786;22;20003;-88
2022/04/09 01:09:04;;;;;;;4.45;2.30;;;;;;;17.19;38.38;98563.97;6275323;22;20008;-88
2022/04/09 01:11:31;;;;;;;6.75;2.70;;;;;;;17.21;38.69;98580.53;6275140;22;20514;-87
2022/04/09 01:13:57;;;;;;;6.25;2.40;;;;;;;16.78;38.52;98519.84;6275192;22;19999;-87
2022/04/09 01:16:24;;;;;;;5.47;2.40;;;;;;;16.86;38.68;98553.28;6274963;22;20019;-87
2022/04/09 01:18:49;;;;;;;5.35;2.83;;;;;;;16.67;38.60;98494.09;6274874;22;20468;-87
2022/04/09 01:21:15;;;;;;;5.78;2.85;;;;;;;16.75;38.84;98523.81;6274837;22;20000;-88
2022/04/09 01:23:40;;;;;;;5.75;2.63;;;;;;;17.14;38.96;98591.38;6274776;22;20000;-88
2022/04/09 01:26:07;;;;;;;4.68;3.22;;;;;;;17.37;38.89;98614.38;6274791;22;20003;-87
2022/04/09 01:28:33;;;;;;;3.50;2.50;;;;;;;15.55;38.83;98333.16;6274593;22;20004;-87
2022/04/09 01:30:59;;;;;;;10.85;2.97;;;;;;;16.55;38.95;98506.66;6276340;22;20437;-87
2022/04/09 01:33:25;;;;;;;5.97;2.60;;;;;;;17.31;39.02;98614.56;6276025;22;19992;-88
2022/04/09 01:35:51;;;;;;;5.78;2.70;;;;;;;17.19;39.13;98601.31;6274447;22;20023;-88
2022/04/09 01:38:17;;;;;;;4.53;2.45;;;;;;;16.83;39.20;98549.25;6274192;22;20011;-87
2022/04/09 01:40:43;;;;;;;6.68;3.10;;;;;;;16.47;39.47;98524.66;6275818;22;20000;-88
2022/04/09 01:43:09;;;;;;;3.40;2.20;;;;;;;16.87;39.26;98582.38;6274773;22;20023;-87
2022/04/09 01:45:35;;;;;;;4.10;2.47;;;;;;;17.14;39.32;98619.91;6274259;22;20034;-88
2022/04/09 01:48:01;;;;;;;4.00;2.50;;;;;;;16.10;39.52;98468.31;6274272;22;20011;-88
2022/04/09 01:50:27;;;;;;;3.85;2.60;;;;;;;17.17;39.37;98623.94;6274444;22;20452;-88
2022/04/09 01:52:53;;;;;;;5.65;2.67;;;;;;;16.40;39.36;98536.50;6274342;22;20416;-88
2022/04/09 01:55:18;;;;;;;5.93;2.50;;;;;;;16.39;39.31;98519.72;6274567;22;20085;-87
2022/04/09 01:57:45;;;;;;;4.60;2.50;;;;;;;16.62;39.48;98569.41;6274407;22;20430;-87
2022/04/09 02:00:12;;;;;;;3.17;2.40;;;;;;;16.27;39.49;98539.44;6274765;22;20472;-87
2022/04/09 02:02:38;;;;;;;5.90;2.45;;;;;;;16.53;39.92;98571.66;6274211;22;20469;-87
2022/04/09 02:05:04;;;;;;;11.20;2.70;;;;;;;16.98;39.83;98616.16;6275813;22;20000;-87
2022/04/09 02:07:29;;;;;;;3.72;2.42;;;;;;;16.28;39.82;98525.88;6275763;22;20083;-89
2022/04/09 02:09:56;;;;;;;4.18;2.30;;;;;;;16.39;39.56;98546.38;6273952;22;20023;-89
2022/04/09 02:12:22;;;;;;;4.43;2.50;;;;;;;16.15;39.77;98515.53;6273798;22;20006;-89
2022/04/09 02:14:47;;;;;;;3.95;2.70;;;;;;;16.47;39.94;98580.59;6274268;22;20400;-89
2022/04/09 02:17:13;;;;;;;4.88;1.95;;;;;;;16.82;39.80;98619.63;6275741;22;19999;-89
2022/04/09 02:19:38;;;;;;;4.95;2.20;;;;;;;16.57;40.18;98613.81;6274395;22;20006;-89
2022/04/09 02:22:05;;;;;;;3.78;2.80;;;;;;;16.51;40.07;98595.06;6276032;22;20000;-89
2022/04/09 02:24:31;;;;;;;5.88;2.60;;;;;;;16.02;40.03;98540.59;6275636;22;20003;-89
2022/04/09 02:26:56;;;;;;;3.85;2.20;;;;;;;15.83;40.21;98520.53;6274640;22;20011;-89
2022/04/09 02:29:21;;;;;;;4.72;2.72;;;;;;;15.51;40.58;98522.75;6274597;22;20035;-89
2022/04/09 02:31:47;;;;;;;3.45;2.40;;;;;;;15.80;40.63;98571.56;6273842;22;20000;-89
2022/04/09 02:34:13;;;;;;;3.40;2.50;;;;;;;15.71;40.35;98554.34;6273853;22;19999;-86
2022/04/09 02:36:38;;;;;;;3.67;2.33;;;;;;;16.16;40.88;98648.44;6281625;22;20007;-89
2022/04/09 02:39:04;;;;;;;3.22;2.60;;;;;;;15.89;41.11;98623.41;6292417;22;20035;-87
2022/04/09 02:41:30;;;;;;;3.42;2.65;;;;;;;15.26;41.23;98523.84;6316950;22;20057;-88
2022/04/09 02:43:57;;;;;;;5.07;2.90;;;;;;;16.00;41.05;98648.38;6292433;22;20031;-86
2022/04/09 02:46:23;;;;;;;4.72;3.05;;;;;;;15.94;41.07;98636.00;6305217;22;20055;-86
2022/04/09 02:48:48;;;;;;;5.30;2.85;;;;;;;14.98;41.68;98497.16;6296494;22;20015;-89
2022/04/09 02:51:13;;;;;;;3.55;2.55;;;;;;;14.56;41.42;98468.00;6279567;22;20357;-89
2022/04/09 02:53:39;;;;;;;5.45;2.67;;;;;;;15.30;42.21;98587.19;6279962;22;20004;-88
2022/04/09 02:56:05;;;;;;;4.10;2.83;;;;;;;15.17;42.12;98575.75;6278637;22;20004;-88
2022/04/09 02:58:30;;;;;;;4.22;2.65;;;;;;;14.89;41.96;98527.78;6279296;22;19996;-88
2022/04/09 03:00:56;;;;;;;6.10;2.97;;;;;;;15.16;41.72;98571.47;6277627;22;20003;-89
2022/04/09 03:03:21;;;;;;;5.07;2.83;;;;;;;15.28;41.69;98592.75;6277129;22;20016;-88
2022/04/09 03:05:47;;;;;;;5.30;3.22;;;;;;;15.67;41.88;98633.84;6303323;22;20035;-89
2022/04/09 03:08:12;;;;;;;3.75;2.85;;;;;;;15.51;41.75;98635.31;6274158;22;20460;-90
2022/04/09 03:10:38;;;;;;;4.57;2.88;;;;;;;15.44;42.08;98600.03;6275342;22;20021;-88
2022/04/09 03:13:06;;;;;;;3.53;3.17;;;;;;;15.17;41.87;98548.34;6273736;22;19995;-89
2022/04/09 03:15:34;;;;;;;4.97;3.70;;;;;;;15.07;41.51;98526.84;6273847;22;19995;-89
2022/04/09 03:17:59;;;;;;;5.93;2.72;;;;;;;15.30;41.88;98589.84;6274155;22;20000;-89
2022/04/09 03:20:25;;;;;;;5.32;3.03;;;;;;;14.98;42.05;98526.41;6273947;22;19996;-89
2022/04/09 03:22:50;;;;;;;4.45;2.80;;;;;;;14.85;42.03;98506.16;6274127;22;20514;-89
2022/04/09 03:25:16;;;;;;;3.83;2.75;;;;;;;15.68;42.10;98632.00;6274066;22;20349;-88
2022/04/09 03:27:42;;;;;;;4.88;2.70;;;;;;;14.92;42.14;98538.75;6273720;22;20464;-88
2022/04/09 03:30:08;;;;;;;5.25;3.08;;;;;;;15.51;41.96;98614.03;6273981;22;20093;-88
2022/04/09 03:32:38;;;;;;;6.45;3.55;;;;;;;14.90;42.20;98537.38;6275448;22;20053;-89
2022/04/09 03:35:07;;;;;;;7.50;3.38;;;;;;;15.66;42.05;98650.84;6273550;22;20004;-89
2022/04/09 03:37:37;;;;;;;5.20;3.92;;;;;;;15.04;42.48;98554.72;6273201;22;20000;-89
2022/04/09 03:40:07;;;;;;;6.60;3.80;;;;;;;14.10;42.13;98412.13;6273632;22;19999;-89
2022/04/09 03:42:33;;;;;;;8.43;3.85;;;;;;;14.87;42.42;98540.50;6273169;22;20000;-89
2022/04/09 03:44:59;;;;;;;5.90;4.05;;;;;;;15.08;42.38;98587.78;6275016;22;20099;-88
2022/04/09 03:47:25;;;;;;;8.30;3.85;;;;;;;14.82;42.32;98537.69;6273878;22;20004;-88
2022/04/09 03:49:50;;;;;;;5.95;3.60;;;;;;;14.51;42.36;98483.81;6281838;22;19999;-88
2022/04/09 03:52:15;;;;;;;5.20;3.03;;;;;;;15.21;42.54;98606.16;6293608;22;20092;-89
2022/04/09 03:54:41;;;;;;;6.50;3.90;;;;;;;15.49;42.28;98642.72;6317817;22;20008;-89
2022/04/09 03:57:06;;;;;;;5.53;3.90;;;;;;;14.82;42.55;98548.31;6292369;22;20034;-88
2022/04/09 03:59:32;;;;;;;7.68;4.13;;;;;;;14.65;42.50;98520.81;6298378;22;20023;-89
2022/04/09 04:01:57;;;;;;;7.78;4.43;;;;;;;14.56;42.43;98517.66;6294225;22;20020;-89
2022/04/09 04:04:23;;;;;;;6.28;4.20;;;;;;;15.32;42.55;98641.78;6291872;22;20015;-89
2022/04/09 04:06:49;;;;;;;7.50;4.60;;;;;;;14.63;42.55;98564.34;6292189;22;20014;-89
2022/04/09 04:09:16;;;;;;;6.88;4.63;;;;;;;14.84;42.73;98602.03;6293058;22;20000;-89
2022/04/09 04:11:45;;;;;;;6.53;4.15;;;;;;;14.17;42.51;98519.84;6293194;22;19996;-89
2022/04/09 04:14:11;;;;;;;8.07;4.38;;;;;;;14.74;42.97;98589.31;6288270;22;20000;-89
2022/04/09 04:16:37;;;;;;;9.18;5.25;;;;;;;14.87;43.03;98626.34;6277836;22;19999;-88
2022/04/09 04:19:03;;;;;;;9.18;4.75;;;;;;;13.94;42.74;98486.06;6275279;22;20057;-89
2022/04/09 04:21:29;;;;;;;7.50;4.60;;;;;;;15.08;42.84;98658.75;6273635;22;20008;-89
2022/04/09 04:23:54;;;;;;;6.40;4.75;;;;;;;15.03;42.89;98666.59;6273351;22;20034;-89
2022/04/09 04:26:20;;;;;;;6.57;5.03;;;;;;;14.96;42.72;98642.78;6273376;22;19996;-89
2022/04/09 04:28:48;;;;;;;9.23;4.40;;;;;;;14.32;42.60;98548.66;6273221;22;20006;-89
2022/04/09 04:31:16;;;;;;;5.13;4.63;;;;;;;15.26;42.57;98661.31;6273048;22;20011;-89
2022/04/09 04:33:41;;;;;;;7.28;5.70;;;;;;;14.91;42.58;98629.34;6272981;22;20130;-89
2022/04/09 04:36:07;;;;;;;7.03;5.57;;;;;;;14.28;42.45;98531.53;6273301;22;20035;-89
2022/04/09 04:38:32;;;;;;;7.78;6.15;;;;;;;14.28;42.65;98536.84;6273028;22;20473;-89
2022/04/09 04:40:59;;;;;;;10.25;6.75;;;;;;;14.45;42.50;98552.97;6273617;22;19999;-89
2022/04/09 04:43:24;;;;;;;11.02;7.88;;;;;;;15.04;42.60;98641.63;6272726;22;20008;-88
2022/04/09 04:45:49;;;;;;;13.57;7.40;;;;;;;14.11;42.64;98535.84;6298744;22;20444;-89
2022/04/09 04:48:15;;;;;;;11.55;7.47;;;;;;;14.80;42.83;98601.69;6272869;22;20087;-89
2022/04/09 04:50:40;;;;;;;12.05;8.57;;;;;;;14.96;42.61;98602.91;6273167;22;19999;-88
2022/04/09 04:53:06;;;;;;;12.32;9.52;;;;;;;15.00;42.53;98597.94;6272882;22;20070;-89
2022/04/09 04:55:31;;;;;;;14.15;11.43;;;;;;;15.24;42.64;98664.19;6272918;22;20027;-89
2022/04/09 04:57:57;;;;;;;13.88;9.98;;;;;;;14.37;42.44;98519.56;6274902;22;20401;-88
2022/04/09 05:00:24;;;;;;;18.17;10.30;;;;;;;15.46;42.63;98660.97;6273498;22;19999;-89
2022/04/09 05:02:53;;;;;;;18.02;10.45;;;;;;;15.07;42.37;98611.94;6272857;22;20414;-88
2022/04/09 05:05:19;;;;;;;13.90;9.05;;;;;;;15.55;42.61;98646.28;6274815;22;20002;-88
2022/04/09 05:07:47;;;;;;;14.07;8.88;;;;;;;15.60;42.26;98642.97;6274296;22;20366;-89
2022/04/09 05:10:15;;;;;;;13.77;8.02;;;;;;;15.55;42.22;98641.78;6274219;22;19988;-89
2022/04/09 05:12:42;;;;;;;10.90;6.93;;;;;;;15.02;42.32;98559.44;6274237;22;20046;-89
2022/04/09 05:15:09;;;;;;;10.98;6.60;;;;;;;15.65;42.32;98640.44;6275040;22;19995;-88
2022/04/09 05:17:35;;;;;;;7.53;6.03;;;;;;;15.07;42.37;98545.47;6276395;22;20452;-89
2022/04/09 05:20:02;;;;;;;10.57;5.88;;;;;;;15.33;42.39;98600.03;6276226;22;19999;-89
2022/04/09 05:22:28;;;;;;;9.63;6.70;;;;;;;14.72;42.03;98487.78;6274817;22;19999;-88
2022/04/09 05:24:54;;;;;;;10.77;5.95;;;;;;;15.52;41.77;98585.56;6274945;22;20077;-88
2022/04/09 05:27:20;;;;;;;12.98;6.15;;;;;;;15.86;42.14;98626.53;6274494;22;20416;-89
2022/04/09 05:29:46;;;;;;;10.90;6.47;;;;;;;15.87;42.12;98620.97;6274744;22;20034;-89
2022/04/09 05:32:11;;;;;;;13.73;6.72;;;;;;;15.60;42.00;98571.13;6275146;22;20003;-89
2022/04/09 05:34:36;;;;;;;11.52;7.55;;;;;;;15.06;42.10;98448.16;6275482;22;20499;-89
2022/04/09 05:37:02;;;;;;;14.77;6.88;;;;;;;16.21;42.05;98623.78;6274574;22;19995;-89
2022/04/09 05:39:27;;;;;;;15.95;9.18;;;;;;;15.85;41.83;98561.84;6300573;22;20065;-89
2022/04/09 05:41:53;;;;;;;26.40;12.27;;;;;;;16.14;41.77;98591.16;6274817;22;20000;-89
2022/04/09 05:44:18;;;;;;;18.70;9.40;;;;;;;16.08;41.32;98547.63;6274593;22;20013;-88
2022/04/09 05:46:44;;;;;;;16.73;7.15;;;;;;;16.36;41.16;98594.00;6274271;22;19996;-88
2022/04/09 05:49:09;;;;;;;10.73;5.95;;;;;;;16.36;41.41;98572.66;6274558;22;20011;-89
2022/04/09 05:51:36;;;;;;;11.00;5.95;;;;;;;16.36;41.24;98532.72;6274647;22;20079;-89
2022/04/09 05:54:02;;;;;;;12.70;5.88;;;;;;;17.08;41.27;98621.66;6274778;22;20031;-89
2022/04/09 05:56:28;;;;;;;8.48;5.43;;;;;;;16.49;41.08;98508.44;6276129;22;20000;-89
2022/04/09 05:58:53;;;;;;;11.15;5.32;;;;;;;16.30;41.14;98473.19;6274523;22;20088;-88
2022/04/09 06:01:18;;;;;;;7.88;3.35;;;;;;;17.42;41.17;98624.31;6274918;22;20408;-89
2022/04/09 06:03:44;;;;;;;5.85;3.00;;;;;;;16.86;41.46;98519.44;6274494;22;20349;-89
2022/04/09 06:06:11;;;;;;;4.35;2.83;;;;;;;16.20;41.41;98393.94;6274252;22;20010;-89
2022/04/09 06:08:36;;;;;;;4.97;2.60;;;;;;;17.31;40.87;98553.19;6274820;22;20003;-90
2022/04/09 06:11:02;;;;;;;4.10;2.38;;;;;;;17.79;41.00;98616.59;6275419;22;20061;-88
2022/04/09 06:13:27;;;;;;;6.07;3.00;;;;;;;17.89;40.81;98608.75;6274137;22;20089;-88
2022/04/09 06:15:53;;;;;;;4.75;2.85;;;;;;;17.58;40.56;98550.63;6274309;22;20000;-88
2022/04/09 06:18:19;;;;;;;5.57;2.70;;;;;;;18.20;40.17;98644.66;6276290;22;20000;-88
2022/04/09 06:20:44;;;;;;;4.85;2.92;;;;;;;17.33;40.34;98503.06;6274475;22;20010;-88
2022/04/09 06:23:10;;;;;;;8.25;3.30;;;;;;;18.04;40.54;98594.75;6276616;22;20022;-87
2022/04/09 06:25:35;;;;;;;3.30;2.47;;;;;;;18.31;40.28;98658.94;6275047;22;20000;-87
2022/04/09 06:28:01;;;;;;;5.60;2.80;;;;;;;18.39;40.08;98623.75;6275749;22;20442;-86
2022/04/09 06:30:27;;;;;;;7.60;3.55;;;;;;;18.29;40.18;98605.75;6275542;22;20346;-88
2022/04/09 06:32:53;;;;;;;5.18;3.08;;;;;;;18.16;40.12;98565.25;6274082;22;20452;-88
2022/04/09 06:35:19;;;;;;;6.47;3.50;;;;;;;17.57;40.15;98467.06;6274288;22;20006;-89
2022/04/09 06:37:45;;;;;;;4.72;2.75;;;;;;;18.56;40.12;98591.56;6274536;22;20007;-89
2022/04/09 06:40:10;;;;;;;5.13;2.53;;;;;;;17.99;40.06;98502.03;6273997;22;20004;-90
2022/04/09 06:42:37;;;;;;;6.43;2.40;;;;;;;18.16;39.85;98496.59;6274166;22;20061;-89
2022/04/09 06:45:03;;;;;;;4.53;2.67;;;;;;;17.71;40.00;98436.28;6299877;22;20007;-88
2022/04/09 06:47:29;;;;;;;4.00;2.50;;;;;;;18.55;39.87;98553.34;6273838;22;19996;-88
2022/04/09 06:49:56;;;;;;;4.65;2.38;;;;;;;18.16;40.00;98491.25;6299887;22;20012;-88
2022/04/09 06:52:22;;;;;;;3.08;1.90;;;;;;;18.22;39.92;98473.41;6299611;22;20000;-88
2022/04/09 06:54:48;;;;;;;4.13;2.38;;;;;;;18.69;39.98;98522.50;6273615;22;20003;-88
2022/04/09 06:57:13;;;;;;;5.25;2.35;;;;;;;18.74;39.83;98535.13;6273806;22;20019;-88
2022/04/09 06:59:38;;;;;;;5.28;2.97;;;;;;;18.57;39.28;98494.28;6273941;22;20003;-88
2022/04/09 07:02:04;;;;;;;3.40;2.30;;;;;;;19.37;38.75;98605.69;6274135;22;20015;-88
2022/04/09 07:04:29;;;;;;;4.38;2.30;;;;;;;18.82;38.56;98496.41;6274080;22;20003;-88
2022/04/09 07:06:55;;;;;;;3.67;2.05;;;;;;;19.32;38.13;98571.66;6274117;22;20083;-89
2022/04/09 07:09:20;;;;;;;2.80;2.10;;;;;;;18.64;38.14;98441.47;6275907;22;20007;-89
2022/04/09 07:11:45;;;;;;;4.38;2.03;;;;;;;19.34;38.18;98569.53;6275635;22;20057;-89
2022/04/09 07:14:11;;;;;;;7.28;2.25;;;;;;;19.20;38.12;98548.81;6274420;22;20026;-88
2022/04/09 07:16:36;;;;;;;5.13;2.35;;;;;;;18.89;38.13;98491.63;6275563;22;20385;-87
2022/04/09 07:19:03;;;;;;;4.95;2.50;;;;;;;19.13;38.16;98508.09;6275765;22;20006;-87
2022/04/09 07:21:29;;;;;;;2.97;2.00;;;;;;;19.36;37.90;98540.66;6275665;22;20030;-87
2022/04/09 07:23:54;;;;;;;5.38;2.38;;;;;;;19.65;37.95;98583.94;6275676;22;20026;-87
2022/04/09 07:26:20;;;;;;;4.32;2.15;;;;;;;19.60;38.02;98562.47;6273621;22;19995;-87
2022/04/09 07:28:46;;;;;;;3.72;2.17;;;;;;;19.17;37.70;98490.47;6273551;22;20035;-87
2022/04/09 07:31:12;;;;;;;4.60;2.60;;;;;;;19.47;37.56;98554.09;6273631;22;19999;-87
2022/04/09 07:33:37;;;;;;;4.45;2.58;;;;;;;19.68;37.40;98545.13;6274870;22;19992;-88
2022/04/09 07:36:04;;;;;;;4.63;2.22;;;;;;;19.85;37.19;98571.69;6272898;22;19992;-89
2022/04/09 07:38:29;;;;;;;4.90;2.40;;;;;;;19.59;37.10;98518.03;6272999;22;19996;-89
2022/04/09 07:40:55;;;;;;;3.47;2.40;;;;;;;18.70;37.23;98411.00;6272769;22;19995;-89
2022/04/09 07:43:20;;;;;;;3.95;2.35;;;;;;;19.74;37.11;98501.22;6273151;22;20057;-88
2022/04/09 07:45:46;;;;;;;4.28;2.50;;;;;;;19.50;36.64;98457.19;6273295;22;20096;-89
2022/04/09 07:48:12;;;;;;;4.05;2.80;;;;;;;20.03;37.07;98533.72;6299034;22;20008;-88
2022/04/09 07:50:38;;;;;;;4.22;2.63;;;;;;;20.21;37.29;98568.09;6274848;22;20061;-88
2022/04/09 07:53:04;;;;;;;5.03;2.40;;;;;;;20.02;37.37;98507.19;6273124;22;20024;-89
2022/04/09 07:55:30;;;;;;;5.85;2.65;;;;;;;20.46;37.20;98563.88;6273093;22;20049;-88
2022/04/09 07:57:55;;;;;;;5.03;2.30;;;;;;;20.04;37.14;98507.72;6274873;22;19996;-89
2022/04/09 08:00:22;;;;;;;4.55;2.20;;;;;;;20.28;37.21;98541.84;6274585;22;20008;-88
2022/04/09 08:02:48;;;;;;;5.45;2.50;;;;;;;20.16;37.12;98495.72;6298661;22;20020;-88
2022/04/09 08:05:15;;;;;;;5.38;2.78;;;;;;;20.42;37.15;98523.41;6273609;22;20002;-89
2022/04/09 08:07:41;;;;;;;4.97;2.30;;;;;;;20.46;36.95;98518.31;6274732;22;20000;-87
2022/04/09 08:10:08;;;;;;;3.92;2.47;;;;;;;20.41;36.64;98504.91;6272989;22;20000;-88
2022/04/09 08:12:33;;;;;;;3.15;2.38;;;;;;;20.51;36.56;98510.25;6272932;22;20027;-85
2022/04/09 08:14:59;;;;;;;3.60;2.20;;;;;;;21.10;36.30;98584.84;6273200;22;20026;-89
2022/04/09 08:17:25;;;;;;;7.10;2.50;;;;;;;20.58;36.06;98502.75;6272946;22;20455;-88
2022/04/09 08:19:50;;;;;;;5.55;2.88;;;;;;;20.82;35.92;98514.56;6273209;22;20011;-88
2022/04/09 08:22:17;;;;;;;6.05;2.78;;;;;;;21.34;36.31;98559.09;6273637;22;20003;-88
2022/04/09 08:24:45;;;;;;;5.38;2.53;;;;;;;21.60;36.07;98559.03;6272969;22;20353;-89
2022/04/09 08:27:10;;;;;;;4.10;2.30;;;;;;;21.28;35.69;98508.34;6274343;22;20009;-86
2022/04/09 08:29:36;;;;;;;3.53;2.38;;;;;;;21.40;35.55;98533.03;6274386;22;20008;-89
2022/04/09 08:32:04;;;;;;;5.65;2.63;;;;;;;21.47;35.80;98515.53;6272814;22;20396;-88
2022/04/09 08:34:33;;;;;;;5.47;2.80;;;;;;;21.37;35.52;98488.72;6272877;22;20000;-88
2022/04/09 08:36:59;;;;;;;7.47;3.00;;;;;;;21.98;35.36;98558.34;6274741;22;19992;-87
2022/04/09 08:39:25;;;;;;;4.85;2.95;;;;;;;22.10;35.23;98566.13;6272604;22;20000;-89
2022/04/09 08:41:52;;;;;;;6.68;2.83;;;;;;;21.68;34.59;98459.88;6274845;22;20011;-89
2022/04/09 08:44:18;;;;;;;5.50;2.80;;;;;;;22.10;34.77;98515.84;6274700;22;19999;-88
2022/04/09 08:46:46;;;;;;;3.30;2.53;;;;;;;21.97;34.77;98469.94;6272910;22;20004;-88
2022/04/09 08:49:12;;;;;;;7.15;2.50;;;;;;;22.16;34.82;98474.41;6274812;22;20003;-88
2022/04/09 08:51:37;;;;;;;6.85;3.15;;;;;;;22.14;34.73;98460.44;6300515;22;20000;-87
2022/04/09 08:54:04;;;;;;;7.32;2.72;;;;;;;22.69;34.35;98506.03;6274653;22;19995;-87
2022/04/09 08:56:34;;;;;;;5.60;2.88;;;;;;;22.26;34.26;98424.31;6274603;22;20006;-86
2022/04/09 08:59:00;;;;;;;6.00;2.85;;;;;;;22.93;33.91;98492.66;6275176;22;20002;-87
2022/04/09 09:01:26;;;;;;;7.57;2.63;;;;;;;23.13;33.66;98511.34;6276308;22;19996;-87
2022/04/09 09:03:53;;;;;;;9.40;2.80;;;;;;;23.25;32.95;98532.47;6274647;22;20004;-88
2022/04/09 09:06:30;;;;;;;8.10;2.67;;;;;;;23.01;32.98;98468.63;6274716;22;20495;-87
2022/04/09 09:09:00;;;;;;;3.72;2.15;;;;;;;23.02;33.03;98440.59;6274429;22;20072;-88
2022/04/09 09:11:28;;;;;;;4.47;2.60;;;;;;;23.81;33.10;98515.72;6276349;22;20003;-87
2022/04/09 09:13:58;;;;;;;3.55;2.05;;;;;;;23.56;32.34;98427.91;6274766;22;20000;-87
2022/04/09 09:16:29;;;;;;;5.85;2.25;;;;;;;23.77;31.92;98448.88;6274998;22;20011;-87
2022/04/09 09:19:09;;;;;;;4.25;2.35;;;;;;;23.93;31.84;98499.94;6274753;22;20058;-87
2022/04/09 09:21:34;;;;;;;4.47;2.30;;;;;;;23.22;31.72;98409.97;6275714;22;20069;-87
2022/04/09 09:24:06;;;;;;;4.57;2.30;;;;;;;24.05;31.63;98493.00;6275398;22;20426;-87
2022/04/09 09:26:34;;;;;;;;;;;;;;;24.22;31.55;98487.09;6275347;22;19999;-86
2022/04/09 09:28:59;;;;;;;6.15;2.33;;;;;;;23.81;31.90;98413.31;6276468;22;20043;-88
2022/04/09 09:31:44;;;;;;;5.40;2.70;;;;;;;24.30;31.97;98482.97;6275150;22;20411;-87
2022/04/09 09:34:15;;;;;;;6.75;2.90;;;;;;;24.20;32.29;98448.84;6274787;22;20003;-88
2022/04/09 09:36:43;;;;;;;4.50;2.63;;;;;;;24.03;32.15;98387.34;6274832;22;20072;-88
2022/04/09 09:39:10;;;;;;;3.83;2.20;;;;;;;24.56;31.45;98480.69;6274669;22;20100;-86
2022/04/09 09:41:48;;;;;;;5.20;2.22;;;;;;;24.97;31.39;98470.00;6275971;22;20073;-86
2022/04/09 09:44:14;;;;;;;3.95;2.40;;;;;;;25.18;30.91;98462.34;6276834;22;19995;-89
2022/04/09 09:46:40;;;;;;;4.82;2.47;;;;;;;24.74;30.69;98360.28;6274531;22;20000;-88
2022/04/09 09:49:05;;;;;;;5.63;2.55;;;;;;;25.65;30.23;98458.44;6274762;22;19999;-88
2022/04/09 09:51:31;;;;;;;4.97;2.20;;;;;;;25.30;29.64;98371.59;6278746;22;20018;-87
2022/04/09 09:54:05;;;;;;;3.50;2.00;;;;;;;25.61;29.64;98366.31;6281290;22;20018;-86
2022/04/09 09:56:35;;;;;;;3.72;2.45;;;;;;;26.21;29.47;98443.69;6282653;22;20003;-85
2022/04/09 09:59:05;;;;;;;4.53;2.40;;;;;;;26.04;29.28;98373.22;6282217;22;19992;-87
2022/04/09 10:01:36;;;;;;;5.88;2.75;;;;;;;26.50;29.08;98403.47;6281249;22;20034;-86
2022/04/09 10:04:04;;;;;;;4.47;2.47;;;;;;;26.17;28.74;98343.41;6274566;22;20357;-88
2022/04/09 10:06:32;;;;;;;7.50;2.75;;;;;;;26.46;28.73;98380.06;6275099;22;19992;-86
2022/04/09 10:08:58;;;;;;;4.50;2.70;;;;;;;26.86;28.58;98413.41;6274232;22;20004;-87
2022/04/09 10:11:26;;;;;;;6.30;2.60;;;;;;;27.10;28.43;98416.56;6276839;22;19999;-86
2022/04/09 10:13:55;;;;;;;4.90;2.13;;;;;;;26.02;28.39;98240.19;6275876;22;19996;-86
2022/04/09 10:16:22;;;;;;;4.47;2.67;;;;;;;26.84;28.13;98329.75;6273619;22;20087;-88
2022/04/09 10:18:48;;;;;;;4.28;2.00;;;;;;;27.35;27.72;98389.84;6274457;22;20057;-86
2022/04/09 10:21:15;;;;;;;6.72;3.10;;;;;;;27.66;28.07;98390.56;6275388;22;19995;-88
2022/04/09 10:23:42;;;;;;;5.93;2.90;;;;;;;27.58;27.63;98345.25;6275471;22;19999;-87
2022/04/09 10:26:08;;;;;;;6.22;2.65;;;;;;;27.59;27.49;98341.41;6273906;22;19999;-86
2022/04/09 10:28:37;;;;;;;7.43;3.08;;;;;;;26.91;27.83;98269.72;6273895;22;20369;-88
2022/04/09 10:31:22;;;;;;;6.30;2.58;;;;;;;27.40;28.22;98347.13;6274453;22;19999;-87
2022/04/09 10:33:55;;;;;;;5.10;2.47;;;;;;;27.92;27.51;98377.00;6275824;22;19996;-88
2022/04/09 10:36:43;;;;;;;4.32;2.20;;;;;;;28.39;27.38;98375.25;6274532;22;20449;-85
2022/04/09 10:39:45;;;;;;;6.97;2.15;;;;;;;28.72;26.67;98372.75;6274373;22;20031;-86
2022/04/09 10:42:56;;;;;;;6.32;2.63;;;;;;;28.39;25.91;98282.13;6264781;22;20361;-85
2022/04/09 10:45:22;;;;;;;4.90;1.95;;;;;;;28.62;26.10;98337.00;6268434;22;20004;-86
2022/04/09 10:48:07;;;;;;;4.63;2.22;;;;;;;29.06;25.81;98366.41;6274077;22;20004;-85
2022/04/09 10:50:54;;;;;;;5.25;2.35;;;;;;;29.19;25.32;98352.91;6274200;22;20003;-86
2022/04/09 10:53:25;;;;;;;3.40;1.80;;;;;;;29.19;25.20;98348.25;6274044;22;20407;-86
2022/04/09 10:56:12;;;;;;;5.68;2.63;;;;;;;29.41;24.87;98337.06;6273468;22;19999;-86
2022/04/09 10:59:29;;;;;;;5.03;2.15;;;;;;;29.56;24.48;98329.47;6273941;22;20003;-86
2022/04/09 11:01:55;;;;;;;4.78;2.30;;;;;;;29.05;24.65;98249.88;6273331;22;20016;-87
2022/04/09 11:04:35;;;;;;;6.75;2.28;;;;;;;29.53;24.48;98333.66;6275229;22;20072;-86
2022/04/09 11:07:20;;;;;;;5.38;2.20;;;;;;;29.14;23.88;98280.50;6274890;22;20004;-86
2022/04/09 11:09:53;;;;;;;3.97;1.98;;;;;;;29.48;24.19;98316.75;6273336;22;20026;-86
2022/04/09 11:12:30;;;;;;;4.40;2.10;;;;;;;29.61;23.93;98319.19;6273552;22;20449;-86
2022/04/09 11:15:00;;;;;;;3.92;2.88;;;;;;;29.64;23.48;98310.38;6274401;22;20102;-86
2022/04/09 11:17:51;;;;;;;5.18;2.10;;;;;;;29.65;23.69;98290.19;6274783;22;19988;-86
2022/04/09 11:20:23;;;;;;;3.17;2.10;;;;;;;29.43;23.39;98249.75;6270513;22;20503;-88
2022/04/09 11:22:54;;;;;;;4.68;2.10;;;;;;;29.66;22.92;98264.59;6273282;22;20038;-86
2022/04/09 11:25:24;;;;;;;3.45;1.90;;;;;;;30.18;22.88;98317.75;6273635;22;20003;-86
2022/04/09 11:28:03;;;;;;;4.93;1.73;;;;;;;30.18;22.49;98312.31;6273955;22;20420;-86
2022/04/09 11:30:29;;;;;;;4.60;2.25;;;;;;;30.45;22.72;98311.66;6274523;22;20053;-86
2022/04/09 11:32:54;;;;;;;3.92;1.80;;;;;;;30.30;22.05;98260.59;6273134;22;20022;-86